sensor_id;sensor_type;location;lat;lon;timestamp;P1;durP1;ratioP1;P2;durP2;ratioP2
20653;SDS011;21083;50.898;4.902;2023-06-26T00:00:25;11.05;;;5.35;;
20653;SDS011;21083;50.898;4.902;2023-06-26T00:02:53;12.02;;;5.97;;
20653;SDS011;21083;50.898;4.902;2023-06-26T00:05:20;13.15;;;5.32;;
20653;SDS011;21083;50.898;4.902;2023-06-26T00:07:47;10.90;;;5.05;;
20653;SDS011;21083;50.898;4.902;2023-06-26T00:10:14;9.18;;;4.65;;
20653;SDS011;21083;50.898;4.902;2023-06-26T00:12:42;11.52;;;4.55;;
20653;SDS011;21083;50.898;4.902;2023-06-26T00:15:09;11.18;;;4.70;;
20653;SDS011;21083;50.898;4.902;2023-06-26T00:17:37;12.43;;;4.95;;
20653;SDS011;21083;50.898;4.902;2023-06-26T00:20:06;17.98;;;5.07;;
20653;SDS011;21083;50.898;4.902;2023-06-26T00:22:35;10.15;;;4.50;;
20653;SDS011;21083;50.898;4.902;2023-06-26T00:25:06;11.52;;;5.05;;
20653;SDS011;21083;50.898;4.902;2023-06-26T00:27:33;11.98;;;4.32;;
20653;SDS011;21083;50.898;4.902;2023-06-26T00:30:00;9.32;;;4.75;;
20653;SDS011;21083;50.898;4.902;2023-06-26T00:32:26;11.07;;;4.53;;
20653;SDS011;21083;50.898;4.902;2023-06-26T00:34:53;11.50;;;5.00;;
20653;SDS011;21083;50.898;4.902;2023-06-26T00:37:21;9.40;;;4.40;;
20653;SDS011;21083;50.898;4.902;2023-06-26T00:39:48;10.10;;;4.47;;
20653;SDS011;21083;50.898;4.902;2023-06-26T00:42:15;12.63;;;4.97;;
20653;SDS011;21083;50.898;4.902;2023-06-26T00:44:42;11.85;;;4.72;;
20653;SDS011;21083;50.898;4.902;2023-06-26T00:47:09;11.10;;;4.57;;
20653;SDS011;21083;50.898;4.902;2023-06-26T00:49:39;11.40;;;4.70;;
20653;SDS011;21083;50.898;4.902;2023-06-26T00:52:06;9.77;;;4.30;;
20653;SDS011;21083;50.898;4.902;2023-06-26T00:54:35;9.10;;;4.35;;
20653;SDS011;21083;50.898;4.902;2023-06-26T00:57:02;8.95;;;4.20;;
20653;SDS011;21083;50.898;4.902;2023-06-26T00:59:29;10.32;;;3.55;;
20653;SDS011;21083;50.898;4.902;2023-06-26T01:01:56;8.82;;;4.00;;
20653;SDS011;21083;50.898;4.902;2023-06-26T01:04:23;11.00;;;4.38;;
20653;SDS011;21083;50.898;4.902;2023-06-26T01:06:52;10.63;;;4.32;;
20653;SDS011;21083;50.898;4.902;2023-06-26T01:09:21;12.82;;;4.43;;
20653;SDS011;21083;50.898;4.902;2023-06-26T01:11:50;13.20;;;4.75;;
20653;SDS011;21083;50.898;4.902;2023-06-26T01:14:18;10.43;;;4.85;;
20653;SDS011;21083;50.898;4.902;2023-06-26T01:16:45;10.00;;;5.00;;
20653;SDS011;21083;50.898;4.902;2023-06-26T01:19:15;9.90;;;4.93;;
20653;SDS011;21083;50.898;4.902;2023-06-26T01:21:50;13.35;;;5.07;;
20653;SDS011;21083;50.898;4.902;2023-06-26T01:24:22;11.90;;;4.97;;
20653;SDS011;21083;50.898;4.902;2023-06-26T01:26:53;12.75;;;4.88;;
20653;SDS011;21083;50.898;4.902;2023-06-26T01:29:21;10.05;;;4.07;;
20653;SDS011;21083;50.898;4.902;2023-06-26T01:31:49;10.90;;;4.88;;
20653;SDS011;21083;50.898;4.902;2023-06-26T01:34:16;9.77;;;4.80;;
20653;SDS011;21083;50.898;4.902;2023-06-26T01:36:44;11.45;;;4.20;;
20653;SDS011;21083;50.898;4.902;2023-06-26T01:39:14;9.60;;;4.65;;
20653;SDS011;21083;50.898;4.902;2023-06-26T01:41:42;15.10;;;4.38;;
20653;SDS011;21083;50.898;4.902;2023-06-26T01:44:14;9.43;;;4.00;;
20653;SDS011;21083;50.898;4.902;2023-06-26T01:46:51;14.15;;;4.00;;
20653;SDS011;21083;50.898;4.902;2023-06-26T01:49:27;11.20;;;3.97;;
20653;SDS011;21083;50.898;4.902;2023-06-26T01:52:04;11.55;;;3.95;;
20653;SDS011;21083;50.898;4.902;2023-06-26T01:54:35;9.23;;;3.83;;
20653;SDS011;21083;50.898;4.902;2023-06-26T01:57:08;9.10;;;3.88;;
20653;SDS011;21083;50.898;4.902;2023-06-26T01:59:38;10.95;;;3.88;;
20653;SDS011;21083;50.898;4.902;2023-06-26T02:02:08;12.20;;;4.38;;
20653;SDS011;21083;50.898;4.902;2023-06-26T02:04:35;10.07;;;4.03;;
20653;SDS011;21083;50.898;4.902;2023-06-26T02:07:02;8.48;;;4.05;;
20653;SDS011;21083;50.898;4.902;2023-06-26T02:09:29;9.38;;;4.18;;
20653;SDS011;21083;50.898;4.902;2023-06-26T02:11:56;10.68;;;3.20;;
20653;SDS011;21083;50.898;4.902;2023-06-26T02:14:23;11.40;;;4.20;;
20653;SDS011;21083;50.898;4.902;2023-06-26T02:16:51;11.90;;;4.00;;
20653;SDS011;21083;50.898;4.902;2023-06-26T02:19:18;8.88;;;3.90;;
20653;SDS011;21083;50.898;4.902;2023-06-26T02:21:46;12.18;;;3.92;;
20653;SDS011;21083;50.898;4.902;2023-06-26T02:24:14;9.45;;;3.40;;
20653;SDS011;21083;50.898;4.902;2023-06-26T02:26:41;11.13;;;4.00;;
20653;SDS011;21083;50.898;4.902;2023-06-26T02:29:08;9.57;;;4.13;;
20653;SDS011;21083;50.898;4.902;2023-06-26T02:31:35;9.18;;;3.58;;
20653;SDS011;21083;50.898;4.902;2023-06-26T02:34:03;9.20;;;3.60;;
20653;SDS011;21083;50.898;4.902;2023-06-26T02:36:30;9.45;;;3.90;;
20653;SDS011;21083;50.898;4.902;2023-06-26T02:38:57;11.18;;;3.50;;
20653;SDS011;21083;50.898;4.902;2023-06-26T02:41:24;9.68;;;3.88;;
20653;SDS011;21083;50.898;4.902;2023-06-26T02:43:51;8.48;;;3.33;;
20653;SDS011;21083;50.898;4.902;2023-06-26T02:46:18;9.40;;;3.50;;
20653;SDS011;21083;50.898;4.902;2023-06-26T02:48:44;10.23;;;3.92;;
20653;SDS011;21083;50.898;4.902;2023-06-26T02:51:13;11.27;;;3.95;;
20653;SDS011;21083;50.898;4.902;2023-06-26T02:53:40;10.45;;;3.22;;
20653;SDS011;21083;50.898;4.902;2023-06-26T02:56:06;8.25;;;3.35;;
20653;SDS011;21083;50.898;4.902;2023-06-26T02:58:33;11.15;;;4.10;;
20653;SDS011;21083;50.898;4.902;2023-06-26T03:01:00;10.18;;;3.60;;
20653;SDS011;21083;50.898;4.902;2023-06-26T03:03:27;13.18;;;4.25;;
20653;SDS011;21083;50.898;4.902;2023-06-26T03:05:54;12.43;;;3.83;;
20653;SDS011;21083;50.898;4.902;2023-06-26T03:08:23;16.58;;;4.13;;
20653;SDS011;21083;50.898;4.902;2023-06-26T03:10:50;9.88;;;3.78;;
20653;SDS011;21083;50.898;4.902;2023-06-26T03:13:17;10.90;;;3.13;;
20653;SDS011;21083;50.898;4.902;2023-06-26T03:15:44;9.18;;;3.33;;
20653;SDS011;21083;50.898;4.902;2023-06-26T03:18:11;9.45;;;3.25;;
20653;SDS011;21083;50.898;4.902;2023-06-26T03:20:38;8.75;;;3.22;;
20653;SDS011;21083;50.898;4.902;2023-06-26T03:23:05;11.98;;;3.70;;
20653;SDS011;21083;50.898;4.902;2023-06-26T03:25:33;12.05;;;3.58;;
20653;SDS011;21083;50.898;4.902;2023-06-26T03:28:00;10.95;;;3.78;;
20653;SDS011;21083;50.898;4.902;2023-06-26T03:30:27;10.68;;;3.80;;
20653;SDS011;21083;50.898;4.902;2023-06-26T03:32:54;16.73;;;3.92;;
20653;SDS011;21083;50.898;4.902;2023-06-26T03:35:21;11.70;;;3.92;;
20653;SDS011;21083;50.898;4.902;2023-06-26T03:37:49;7.90;;;3.65;;
20653;SDS011;21083;50.898;4.902;2023-06-26T03:40:16;10.95;;;4.00;;
20653;SDS011;21083;50.898;4.902;2023-06-26T03:42:44;11.73;;;3.65;;
20653;SDS011;21083;50.898;4.902;2023-06-26T03:45:11;14.80;;;3.80;;
20653;SDS011;21083;50.898;4.902;2023-06-26T03:47:38;17.25;;;3.92;;
20653;SDS011;21083;50.898;4.902;2023-06-26T03:50:07;11.68;;;4.13;;
20653;SDS011;21083;50.898;4.902;2023-06-26T03:52:34;11.20;;;4.28;;
20653;SDS011;21083;50.898;4.902;2023-06-26T03:55:01;17.08;;;4.30;;
20653;SDS011;21083;50.898;4.902;2023-06-26T03:57:28;11.70;;;4.03;;
20653;SDS011;21083;50.898;4.902;2023-06-26T03:59:57;9.57;;;3.75;;
20653;SDS011;21083;50.898;4.902;2023-06-26T04:02:24;16.45;;;4.28;;
20653;SDS011;21083;50.898;4.902;2023-06-26T04:04:50;14.90;;;4.35;;
20653;SDS011;21083;50.898;4.902;2023-06-26T04:07:18;11.40;;;4.05;;
20653;SDS011;21083;50.898;4.902;2023-06-26T04:09:45;19.10;;;4.20;;
20653;SDS011;21083;50.898;4.902;2023-06-26T04:12:11;16.35;;;4.32;;
20653;SDS011;21083;50.898;4.902;2023-06-26T04:14:38;13.30;;;3.85;;
20653;SDS011;21083;50.898;4.902;2023-06-26T04:17:06;17.63;;;4.70;;
20653;SDS011;21083;50.898;4.902;2023-06-26T04:19:33;16.55;;;4.32;;
20653;SDS011;21083;50.898;4.902;2023-06-26T04:22:01;15.32;;;4.15;;
20653;SDS011;21083;50.898;4.902;2023-06-26T04:24:29;17.70;;;4.55;;
20653;SDS011;21083;50.898;4.902;2023-06-26T04:26:56;13.63;;;4.07;;
20653;SDS011;21083;50.898;4.902;2023-06-26T04:29:23;11.25;;;3.53;;
20653;SDS011;21083;50.898;4.902;2023-06-26T04:31:50;11.95;;;4.15;;
20653;SDS011;21083;50.898;4.902;2023-06-26T04:34:19;15.02;;;4.18;;
20653;SDS011;21083;50.898;4.902;2023-06-26T04:36:45;15.55;;;4.38;;
20653;SDS011;21083;50.898;4.902;2023-06-26T04:39:13;17.50;;;4.25;;
20653;SDS011;21083;50.898;4.902;2023-06-26T04:41:40;15.93;;;3.63;;
20653;SDS011;21083;50.898;4.902;2023-06-26T04:44:07;14.90;;;4.00;;
20653;SDS011;21083;50.898;4.902;2023-06-26T04:46:34;17.85;;;4.30;;
20653;SDS011;21083;50.898;4.902;2023-06-26T04:49:02;12.13;;;3.65;;
20653;SDS011;21083;50.898;4.902;2023-06-26T04:51:30;16.08;;;4.30;;
20653;SDS011;21083;50.898;4.902;2023-06-26T04:53:57;19.80;;;4.13;;
20653;SDS011;21083;50.898;4.902;2023-06-26T04:56:24;19.92;;;4.13;;
20653;SDS011;21083;50.898;4.902;2023-06-26T04:58:51;14.57;;;4.05;;
20653;SDS011;21083;50.898;4.902;2023-06-26T05:01:18;13.00;;;4.45;;
20653;SDS011;21083;50.898;4.902;2023-06-26T05:03:45;20.88;;;4.38;;
20653;SDS011;21083;50.898;4.902;2023-06-26T05:06:12;14.18;;;3.60;;
20653;SDS011;21083;50.898;4.902;2023-06-26T05:08:41;16.60;;;3.80;;
20653;SDS011;21083;50.898;4.902;2023-06-26T05:11:08;15.07;;;3.83;;
20653;SDS011;21083;50.898;4.902;2023-06-26T05:13:34;16.50;;;4.00;;
20653;SDS011;21083;50.898;4.902;2023-06-26T05:16:01;16.45;;;3.85;;
20653;SDS011;21083;50.898;4.902;2023-06-26T05:18:28;14.40;;;3.60;;
20653;SDS011;21083;50.898;4.902;2023-06-26T05:20:55;17.27;;;4.47;;
20653;SDS011;21083;50.898;4.902;2023-06-26T05:23:22;17.25;;;4.07;;
20653;SDS011;21083;50.898;4.902;2023-06-26T05:25:53;22.73;;;4.15;;
20653;SDS011;21083;50.898;4.902;2023-06-26T05:28:21;16.85;;;4.00;;
20653;SDS011;21083;50.898;4.902;2023-06-26T05:30:50;15.10;;;3.20;;
20653;SDS011;21083;50.898;4.902;2023-06-26T05:33:17;15.27;;;4.00;;
20653;SDS011;21083;50.898;4.902;2023-06-26T05:35:45;16.13;;;3.75;;
20653;SDS011;21083;50.898;4.902;2023-06-26T05:38:14;14.50;;;3.60;;
20653;SDS011;21083;50.898;4.902;2023-06-26T05:40:42;17.73;;;3.80;;
20653;SDS011;21083;50.898;4.902;2023-06-26T05:43:10;21.42;;;4.55;;
20653;SDS011;21083;50.898;4.902;2023-06-26T05:45:38;26.23;;;5.47;;
20653;SDS011;21083;50.898;4.902;2023-06-26T05:48:05;17.90;;;3.90;;
20653;SDS011;21083;50.898;4.902;2023-06-26T05:50:32;18.42;;;4.07;;
20653;SDS011;21083;50.898;4.902;2023-06-26T05:53:00;16.17;;;3.65;;
20653;SDS011;21083;50.898;4.902;2023-06-26T05:55:28;13.88;;;3.33;;
20653;SDS011;21083;50.898;4.902;2023-06-26T05:57:55;14.60;;;3.35;;
20653;SDS011;21083;50.898;4.902;2023-06-26T06:00:27;16.88;;;3.85;;
20653;SDS011;21083;50.898;4.902;2023-06-26T06:02:55;16.50;;;3.10;;
20653;SDS011;21083;50.898;4.902;2023-06-26T06:05:22;18.40;;;3.33;;
20653;SDS011;21083;50.898;4.902;2023-06-26T06:07:49;17.23;;;3.97;;
20653;SDS011;21083;50.898;4.902;2023-06-26T06:10:16;15.43;;;3.00;;
20653;SDS011;21083;50.898;4.902;2023-06-26T06:12:43;17.17;;;3.10;;
20653;SDS011;21083;50.898;4.902;2023-06-26T06:15:10;14.23;;;3.30;;
20653;SDS011;21083;50.898;4.902;2023-06-26T06:17:38;16.67;;;3.17;;
20653;SDS011;21083;50.898;4.902;2023-06-26T06:20:05;15.90;;;3.47;;
20653;SDS011;21083;50.898;4.902;2023-06-26T06:22:32;20.10;;;2.97;;
20653;SDS011;21083;50.898;4.902;2023-06-26T06:24:59;18.33;;;3.53;;
20653;SDS011;21083;50.898;4.902;2023-06-26T06:27:26;17.20;;;3.13;;
20653;SDS011;21083;50.898;4.902;2023-06-26T06:29:53;15.57;;;2.85;;
20653;SDS011;21083;50.898;4.902;2023-06-26T06:32:20;16.15;;;3.25;;
20653;SDS011;21083;50.898;4.902;2023-06-26T06:34:49;16.02;;;3.42;;
20653;SDS011;21083;50.898;4.902;2023-06-26T06:37:16;14.65;;;3.15;;
20653;SDS011;21083;50.898;4.902;2023-06-26T06:39:43;15.07;;;3.08;;
20653;SDS011;21083;50.898;4.902;2023-06-26T06:42:09;16.80;;;3.40;;
20653;SDS011;21083;50.898;4.902;2023-06-26T06:44:36;18.63;;;3.60;;
20653;SDS011;21083;50.898;4.902;2023-06-26T06:47:03;17.90;;;3.70;;
20653;SDS011;21083;50.898;4.902;2023-06-26T06:49:30;14.40;;;3.60;;
20653;SDS011;21083;50.898;4.902;2023-06-26T06:51:58;19.25;;;3.53;;
20653;SDS011;21083;50.898;4.902;2023-06-26T06:54:25;13.10;;;2.70;;
20653;SDS011;21083;50.898;4.902;2023-06-26T06:56:53;11.75;;;2.42;;
20653;SDS011;21083;50.898;4.902;2023-06-26T06:59:20;17.70;;;2.92;;
20653;SDS011;21083;50.898;4.902;2023-06-26T07:01:47;13.82;;;2.83;;
20653;SDS011;21083;50.898;4.902;2023-06-26T07:04:14;10.90;;;2.63;;
20653;SDS011;21083;50.898;4.902;2023-06-26T07:06:41;14.32;;;3.30;;
20653;SDS011;21083;50.898;4.902;2023-06-26T07:09:09;16.48;;;2.97;;
20653;SDS011;21083;50.898;4.902;2023-06-26T07:11:36;13.98;;;3.28;;
20653;SDS011;21083;50.898;4.902;2023-06-26T07:14:03;19.08;;;2.85;;
20653;SDS011;21083;50.898;4.902;2023-06-26T07:16:30;13.73;;;2.90;;
20653;SDS011;21083;50.898;4.902;2023-06-26T07:18:57;14.43;;;2.30;;
20653;SDS011;21083;50.898;4.902;2023-06-26T07:21:23;17.35;;;3.00;;
20653;SDS011;21083;50.898;4.902;2023-06-26T07:23:50;11.15;;;2.60;;
20653;SDS011;21083;50.898;4.902;2023-06-26T07:26:18;16.52;;;2.72;;
20653;SDS011;21083;50.898;4.902;2023-06-26T07:28:47;12.43;;;2.72;;
20653;SDS011;21083;50.898;4.902;2023-06-26T07:31:15;12.70;;;2.38;;
20653;SDS011;21083;50.898;4.902;2023-06-26T07:33:42;13.70;;;2.45;;
20653;SDS011;21083;50.898;4.902;2023-06-26T07:36:09;15.00;;;2.80;;
20653;SDS011;21083;50.898;4.902;2023-06-26T07:38:36;12.52;;;2.75;;
20653;SDS011;21083;50.898;4.902;2023-06-26T07:41:03;9.73;;;2.53;;
20653;SDS011;21083;50.898;4.902;2023-06-26T07:43:31;16.60;;;3.08;;
20653;SDS011;21083;50.898;4.902;2023-06-26T07:45:58;9.68;;;2.28;;
20653;SDS011;21083;50.898;4.902;2023-06-26T07:48:25;11.27;;;2.15;;
20653;SDS011;21083;50.898;4.902;2023-06-26T07:50:52;11.93;;;2.05;;
20653;SDS011;21083;50.898;4.902;2023-06-26T07:53:19;11.40;;;2.25;;
20653;SDS011;21083;50.898;4.902;2023-06-26T07:55:46;12.32;;;2.45;;
20653;SDS011;21083;50.898;4.902;2023-06-26T07:58:13;13.30;;;2.55;;
20653;SDS011;21083;50.898;4.902;2023-06-26T08:00:41;10.82;;;2.40;;
20653;SDS011;21083;50.898;4.902;2023-06-26T08:03:08;9.40;;;2.72;;
20653;SDS011;21083;50.898;4.902;2023-06-26T08:05:35;15.32;;;2.70;;
20653;SDS011;21083;50.898;4.902;2023-06-26T08:08:02;9.63;;;2.30;;
20653;SDS011;21083;50.898;4.902;2023-06-26T08:10:29;13.65;;;2.65;;
20653;SDS011;21083;50.898;4.902;2023-06-26T08:12:56;11.27;;;2.60;;
20653;SDS011;21083;50.898;4.902;2023-06-26T08:15:23;12.15;;;2.25;;
20653;SDS011;21083;50.898;4.902;2023-06-26T08:17:52;17.75;;;2.63;;
20653;SDS011;21083;50.898;4.902;2023-06-26T08:20:18;15.85;;;2.33;;
20653;SDS011;21083;50.898;4.902;2023-06-26T08:22:45;11.70;;;2.20;;
20653;SDS011;21083;50.898;4.902;2023-06-26T08:25:14;13.02;;;2.53;;
20653;SDS011;21083;50.898;4.902;2023-06-26T08:27:41;10.55;;;1.83;;
20653;SDS011;21083;50.898;4.902;2023-06-26T08:30:08;11.55;;;1.95;;
20653;SDS011;21083;50.898;4.902;2023-06-26T08:32:36;10.02;;;2.38;;
20653;SDS011;21083;50.898;4.902;2023-06-26T08:35:05;12.75;;;2.10;;
20653;SDS011;21083;50.898;4.902;2023-06-26T08:37:35;13.00;;;2.28;;
20653;SDS011;21083;50.898;4.902;2023-06-26T08:40:02;12.25;;;2.50;;
20653;SDS011;21083;50.898;4.902;2023-06-26T08:42:30;6.93;;;1.88;;
20653;SDS011;21083;50.898;4.902;2023-06-26T08:44:57;12.55;;;2.03;;
20653;SDS011;21083;50.898;4.902;2023-06-26T08:47:24;10.75;;;2.00;;
20653;SDS011;21083;50.898;4.902;2023-06-26T08:49:52;11.27;;;2.25;;
20653;SDS011;21083;50.898;4.902;2023-06-26T08:52:33;9.88;;;1.95;;
20653;SDS011;21083;50.898;4.902;2023-06-26T08:55:04;9.73;;;1.92;;
20653;SDS011;21083;50.898;4.902;2023-06-26T08:57:35;11.23;;;2.08;;
20653;SDS011;21083;50.898;4.902;2023-06-26T09:00:03;9.07;;;1.65;;
20653;SDS011;21083;50.898;4.902;2023-06-26T09:02:33;10.48;;;2.25;;
20653;SDS011;21083;50.898;4.902;2023-06-26T09:05:01;11.18;;;1.63;;
20653;SDS011;21083;50.898;4.902;2023-06-26T09:07:28;10.73;;;1.63;;
20653;SDS011;21083;50.898;4.902;2023-06-26T09:09:57;9.38;;;2.03;;
20653;SDS011;21083;50.898;4.902;2023-06-26T09:12:26;6.22;;;1.60;;
20653;SDS011;21083;50.898;4.902;2023-06-26T09:14:54;14.18;;;2.00;;
20653;SDS011;21083;50.898;4.902;2023-06-26T09:17:24;11.38;;;1.77;;
20653;SDS011;21083;50.898;4.902;2023-06-26T09:19:51;9.57;;;1.98;;
20653;SDS011;21083;50.898;4.902;2023-06-26T09:22:19;12.52;;;2.55;;
20653;SDS011;21083;50.898;4.902;2023-06-26T09:24:46;9.45;;;2.00;;
20653;SDS011;21083;50.898;4.902;2023-06-26T09:27:15;10.10;;;1.95;;
20653;SDS011;21083;50.898;4.902;2023-06-26T09:29:44;9.32;;;1.85;;
20653;SDS011;21083;50.898;4.902;2023-06-26T09:32:12;11.80;;;1.52;;
20653;SDS011;21083;50.898;4.902;2023-06-26T09:34:40;11.50;;;2.13;;
20653;SDS011;21083;50.898;4.902;2023-06-26T09:37:11;9.25;;;1.63;;
20653;SDS011;21083;50.898;4.902;2023-06-26T09:39:38;6.07;;;1.80;;
20653;SDS011;21083;50.898;4.902;2023-06-26T09:42:05;9.30;;;1.90;;
20653;SDS011;21083;50.898;4.902;2023-06-26T09:44:33;11.15;;;1.48;;
20653;SDS011;21083;50.898;4.902;2023-06-26T09:47:01;4.53;;;1.20;;
20653;SDS011;21083;50.898;4.902;2023-06-26T09:49:29;12.88;;;1.88;;
20653;SDS011;21083;50.898;4.902;2023-06-26T09:51:57;11.63;;;1.70;;
20653;SDS011;21083;50.898;4.902;2023-06-26T09:54:26;9.93;;;1.40;;
20653;SDS011;21083;50.898;4.902;2023-06-26T09:56:55;9.38;;;1.65;;
20653;SDS011;21083;50.898;4.902;2023-06-26T09:59:22;8.00;;;1.63;;
20653;SDS011;21083;50.898;4.902;2023-06-26T10:01:58;6.15;;;1.58;;
20653;SDS011;21083;50.898;4.902;2023-06-26T10:04:25;4.43;;;1.45;;
20653;SDS011;21083;50.898;4.902;2023-06-26T10:06:53;9.95;;;1.83;;
20653;SDS011;21083;50.898;4.902;2023-06-26T10:09:22;7.50;;;1.27;;
20653;SDS011;21083;50.898;4.902;2023-06-26T10:11:51;7.30;;;1.27;;
20653;SDS011;21083;50.898;4.902;2023-06-26T10:14:22;6.40;;;1.35;;
20653;SDS011;21083;50.898;4.902;2023-06-26T10:16:57;4.57;;;1.20;;
20653;SDS011;21083;50.898;4.902;2023-06-26T10:19:26;7.65;;;1.40;;
20653;SDS011;21083;50.898;4.902;2023-06-26T10:21:54;7.95;;;1.30;;
20653;SDS011;21083;50.898;4.902;2023-06-26T10:24:22;7.50;;;1.23;;
20653;SDS011;21083;50.898;4.902;2023-06-26T10:26:52;16.48;;;1.50;;
20653;SDS011;21083;50.898;4.902;2023-06-26T10:29:23;8.13;;;1.10;;
20653;SDS011;21083;50.898;4.902;2023-06-26T10:31:52;8.95;;;1.50;;
20653;SDS011;21083;50.898;4.902;2023-06-26T10:34:25;6.50;;;1.52;;
20653;SDS011;21083;50.898;4.902;2023-06-26T10:36:58;7.97;;;1.25;;
20653;SDS011;21083;50.898;4.902;2023-06-26T10:39:25;5.65;;;1.70;;
20653;SDS011;21083;50.898;4.902;2023-06-26T10:41:54;10.23;;;1.85;;
20653;SDS011;21083;50.898;4.902;2023-06-26T10:44:21;8.52;;;1.77;;
20653;SDS011;21083;50.898;4.902;2023-06-26T10:46:49;7.28;;;1.65;;
20653;SDS011;21083;50.898;4.902;2023-06-26T10:49:19;5.95;;;1.23;;
20653;SDS011;21083;50.898;4.902;2023-06-26T10:51:47;8.95;;;1.70;;
20653;SDS011;21083;50.898;4.902;2023-06-26T10:54:15;8.45;;;2.03;;
20653;SDS011;21083;50.898;4.902;2023-06-26T10:56:43;5.75;;;1.50;;
20653;SDS011;21083;50.898;4.902;2023-06-26T10:59:15;5.82;;;1.65;;
20653;SDS011;21083;50.898;4.902;2023-06-26T11:01:43;5.97;;;1.23;;
20653;SDS011;21083;50.898;4.902;2023-06-26T11:04:13;7.55;;;1.33;;
20653;SDS011;21083;50.898;4.902;2023-06-26T11:06:44;5.45;;;1.33;;
20653;SDS011;21083;50.898;4.902;2023-06-26T11:09:14;5.63;;;1.25;;
20653;SDS011;21083;50.898;4.902;2023-06-26T11:11:56;8.18;;;1.77;;
20653;SDS011;21083;50.898;4.902;2023-06-26T11:14:33;5.18;;;1.20;;
20653;SDS011;21083;50.898;4.902;2023-06-26T11:17:04;7.82;;;1.40;;
20653;SDS011;21083;50.898;4.902;2023-06-26T11:19:31;8.77;;;1.58;;
20653;SDS011;21083;50.898;4.902;2023-06-26T11:22:03;5.32;;;1.23;;
20653;SDS011;21083;50.898;4.902;2023-06-26T11:24:31;6.63;;;1.45;;
20653;SDS011;21083;50.898;4.902;2023-06-26T11:27:01;8.75;;;1.60;;
20653;SDS011;21083;50.898;4.902;2023-06-26T11:29:31;4.97;;;1.20;;
20653;SDS011;21083;50.898;4.902;2023-06-26T11:31:59;6.40;;;1.38;;
20653;SDS011;21083;50.898;4.902;2023-06-26T11:34:29;8.90;;;1.48;;
20653;SDS011;21083;50.898;4.902;2023-06-26T11:36:57;9.05;;;1.40;;
20653;SDS011;21083;50.898;4.902;2023-06-26T11:39:27;8.32;;;1.63;;
20653;SDS011;21083;50.898;4.902;2023-06-26T11:41:54;8.27;;;1.58;;
20653;SDS011;21083;50.898;4.902;2023-06-26T11:44:22;6.30;;;1.38;;
20653;SDS011;21083;50.898;4.902;2023-06-26T11:46:51;8.35;;;1.52;;
20653;SDS011;21083;50.898;4.902;2023-06-26T11:49:20;8.57;;;1.45;;
20653;SDS011;21083;50.898;4.902;2023-06-26T11:51:48;6.15;;;1.17;;
20653;SDS011;21083;50.898;4.902;2023-06-26T11:54:15;6.43;;;1.45;;
20653;SDS011;21083;50.898;4.902;2023-06-26T11:56:52;5.72;;;1.40;;
20653;SDS011;21083;50.898;4.902;2023-06-26T11:59:22;7.72;;;1.30;;
20653;SDS011;21083;50.898;4.902;2023-06-26T12:01:49;7.45;;;1.38;;
20653;SDS011;21083;50.898;4.902;2023-06-26T12:04:17;7.38;;;1.60;;
20653;SDS011;21083;50.898;4.902;2023-06-26T12:06:46;5.60;;;1.40;;
20653;SDS011;21083;50.898;4.902;2023-06-26T12:09:14;9.75;;;1.80;;
20653;SDS011;21083;50.898;4.902;2023-06-26T12:11:42;6.88;;;1.50;;
20653;SDS011;21083;50.898;4.902;2023-06-26T12:14:11;7.97;;;1.45;;
20653;SDS011;21083;50.898;4.902;2023-06-26T12:16:38;5.80;;;1.52;;
20653;SDS011;21083;50.898;4.902;2023-06-26T12:19:06;5.40;;;1.67;;
20653;SDS011;21083;50.898;4.902;2023-06-26T12:21:44;8.88;;;1.40;;
20653;SDS011;21083;50.898;4.902;2023-06-26T12:24:14;6.32;;;1.42;;
20653;SDS011;21083;50.898;4.902;2023-06-26T12:26:42;8.07;;;1.60;;
20653;SDS011;21083;50.898;4.902;2023-06-26T12:29:12;7.30;;;1.50;;
20653;SDS011;21083;50.898;4.902;2023-06-26T12:31:39;6.72;;;1.75;;
20653;SDS011;21083;50.898;4.902;2023-06-26T12:34:10;9.40;;;1.48;;
20653;SDS011;21083;50.898;4.902;2023-06-26T12:36:40;5.75;;;1.27;;
20653;SDS011;21083;50.898;4.902;2023-06-26T12:39:09;6.03;;;1.60;;
20653;SDS011;21083;50.898;4.902;2023-06-26T12:41:43;11.82;;;1.60;;
20653;SDS011;21083;50.898;4.902;2023-06-26T12:44:19;5.25;;;1.55;;
20653;SDS011;21083;50.898;4.902;2023-06-26T12:46:47;5.55;;;1.65;;
20653;SDS011;21083;50.898;4.902;2023-06-26T12:49:15;8.10;;;1.90;;
20653;SDS011;21083;50.898;4.902;2023-06-26T12:51:43;8.13;;;1.58;;
20653;SDS011;21083;50.898;4.902;2023-06-26T12:54:10;9.65;;;2.05;;
20653;SDS011;21083;50.898;4.902;2023-06-26T12:56:37;8.02;;;1.58;;
20653;SDS011;21083;50.898;4.902;2023-06-26T12:59:04;6.55;;;1.30;;
20653;SDS011;21083;50.898;4.902;2023-06-26T13:01:32;7.47;;;1.38;;
20653;SDS011;21083;50.898;4.902;2023-06-26T13:03:59;7.30;;;1.25;;
20653;SDS011;21083;50.898;4.902;2023-06-26T13:06:26;8.23;;;1.63;;
20653;SDS011;21083;50.898;4.902;2023-06-26T13:08:53;5.90;;;1.27;;
20653;SDS011;21083;50.898;4.902;2023-06-26T13:11:20;7.68;;;1.75;;
20653;SDS011;21083;50.898;4.902;2023-06-26T13:13:47;8.57;;;1.83;;
20653;SDS011;21083;50.898;4.902;2023-06-26T13:16:14;15.80;;;1.80;;
20653;SDS011;21083;50.898;4.902;2023-06-26T13:18:45;11.80;;;1.80;;
20653;SDS011;21083;50.898;4.902;2023-06-26T13:21:12;9.82;;;1.60;;
20653;SDS011;21083;50.898;4.902;2023-06-26T13:23:39;4.85;;;1.38;;
20653;SDS011;21083;50.898;4.902;2023-06-26T13:26:06;5.43;;;1.35;;
20653;SDS011;21083;50.898;4.902;2023-06-26T13:28:33;8.82;;;1.83;;
20653;SDS011;21083;50.898;4.902;2023-06-26T13:31:00;6.05;;;1.67;;
20653;SDS011;21083;50.898;4.902;2023-06-26T13:33:26;6.10;;;1.52;;
20653;SDS011;21083;50.898;4.902;2023-06-26T13:35:55;7.25;;;1.77;;
20653;SDS011;21083;50.898;4.902;2023-06-26T13:38:22;8.50;;;1.50;;
20653;SDS011;21083;50.898;4.902;2023-06-26T13:40:50;6.38;;;1.55;;
20653;SDS011;21083;50.898;4.902;2023-06-26T13:43:18;10.50;;;1.83;;
20653;SDS011;21083;50.898;4.902;2023-06-26T13:45:46;7.72;;;1.40;;
20653;SDS011;21083;50.898;4.902;2023-06-26T13:48:14;8.40;;;1.77;;
20653;SDS011;21083;50.898;4.902;2023-06-26T13:50:40;14.68;;;1.70;;
20653;SDS011;21083;50.898;4.902;2023-06-26T13:53:09;5.97;;;1.50;;
20653;SDS011;21083;50.898;4.902;2023-06-26T13:55:36;11.30;;;1.73;;
20653;SDS011;21083;50.898;4.902;2023-06-26T13:58:03;6.75;;;1.70;;
20653;SDS011;21083;50.898;4.902;2023-06-26T14:00:30;11.80;;;1.90;;
20653;SDS011;21083;50.898;4.902;2023-06-26T14:02:58;6.85;;;1.65;;
20653;SDS011;21083;50.898;4.902;2023-06-26T14:05:25;10.90;;;1.85;;
20653;SDS011;21083;50.898;4.902;2023-06-26T14:07:52;10.00;;;1.48;;
20653;SDS011;21083;50.898;4.902;2023-06-26T14:10:21;7.72;;;1.90;;
20653;SDS011;21083;50.898;4.902;2023-06-26T14:12:48;14.63;;;1.80;;
20653;SDS011;21083;50.898;4.902;2023-06-26T14:15:15;8.00;;;1.83;;
20653;SDS011;21083;50.898;4.902;2023-06-26T14:17:42;5.78;;;1.75;;
20653;SDS011;21083;50.898;4.902;2023-06-26T14:20:10;12.00;;;1.80;;
20653;SDS011;21083;50.898;4.902;2023-06-26T14:22:38;6.68;;;1.75;;
20653;SDS011;21083;50.898;4.902;2023-06-26T14:25:05;9.95;;;1.88;;
20653;SDS011;21083;50.898;4.902;2023-06-26T14:27:35;6.35;;;1.58;;
20653;SDS011;21083;50.898;4.902;2023-06-26T14:30:02;11.70;;;1.65;;
20653;SDS011;21083;50.898;4.902;2023-06-26T14:32:30;8.40;;;1.83;;
20653;SDS011;21083;50.898;4.902;2023-06-26T14:34:57;6.15;;;1.38;;
20653;SDS011;21083;50.898;4.902;2023-06-26T14:37:24;10.15;;;1.70;;
20653;SDS011;21083;50.898;4.902;2023-06-26T14:39:52;6.70;;;1.95;;
20653;SDS011;21083;50.898;4.902;2023-06-26T14:42:19;12.10;;;2.00;;
20653;SDS011;21083;50.898;4.902;2023-06-26T14:44:47;6.68;;;1.70;;